HTZA

Details ICAO HTZA (ZNZ)
Name Zanzibar Airport
Region Tanzania
Timezone Africa/Dar_es_Salaam (UTC+3.0)
Plans Departing 114
Arriving 219
Stats Elevation 54 ft / 16 m (AMSL)
Location -6.224530° 39.225200°
Runways 1
Magnetic Variation 1.801° W
Sunrise 2019-02-21 03:30:06 UTC / 2019-02-21 06:30:06 Local
Sunset 2019-02-21 15:46:24 UTC / 2019-02-21 18:46:24 Local
Advertisement - Login to hide

Runways

ID Width Length Bearing (true/mag) Surface Threshold Overrun Markings Lighting
18 148 ft / 45 m 9,969 ft / 3,039 m 174.31° / 176.12° ASPHALT 0 ft / 0 m 272 ft / 83 m APP EDGE THRESHOLD SALS REIL-OMNI
36 148 ft / 45 m 9,969 ft / 3,039 m 354.31° / 356.12° ASPHALT 0 ft / 0 m 171 ft / 52 m APP EDGE THRESHOLD SALS REIL-OMNI

Map

Weather


0- 5 10 15 20 25 30 35+ Temperature / °C

Clouds and Precipitation
Forecast for 2019-02-21 12:00 UTC. Updated 3 hours ago

Ground ~20,000 ft ~40,000 ft Winds

METAR

HTZA 211200Z 00000KT 9999 SCT012 FEW013CB 30/25 Q1011 NOSIG

TAF

TAF HTZA 211100Z 2112/2212 07010KT 9999 SCT022 BECMG 2117/2119 00000KT BECMG 2122/2200 BKN012 FEW014CB TEMPO 2202/2206 5000 TSRA BECMG 2209/2211 07010KT SCT024

Frequencies

Approach 121.20 MHz Zanzibar Approach
Tower 121.20 MHz Zanzibar Tower
Warning: Do not use this data for real-world aviation or navigation. No guarantee of current accuracy is given.